Meteo Giornale » Osservazioni meteo Iran » Yazd
ore: 06:30 - Osservazioni Meteo Yazd
Lat. 31° 54' N Lon. 54° 24' E Alt. 1238 metri s.l.m.
28 °C
Sereno
Temp. 24 Ore
27 °C
40 °C
Sud-Est
11.1 Km/h
Dew point -1 °C
Umidità 15 %
Visibilità 10 Km
Il sole sorge alle ore 05:27
Il sole tramonta alle ore 18:17
| Data e Ora | Cielo e Fenomeni | T °C | DP °C | Um. % | Pres. hPa | Vis. km | Vento km/h | |
|---|---|---|---|---|---|---|---|---|
| Oggi h: 06:30 | Sereno | 28 | -1 | 15 | 1014 | 10 | SE 11.1 | |
| Oggi h: 06:00 | Sereno | 27 | -1 | 15 | 1014 | 10 | SE 11.1 | |
| Oggi h: 05:30 | Sereno | 27 | -1 | 15 | 1014 | 10 | S/SE 14.8 | |
| Oggi h: 04:30 | Sereno | 27 | 0 | 17 | 1013 | 10 | SE 7.4 | |
| Oggi h: 03:30 | Sereno | 27 | 0 | 17 | 1013 | 10 | E/SE 7.4 | |
| Oggi h: 02:30 | Sereno | 27 | 0 | 17 | 1013 | 10 | E 9.3 | |
| Oggi h: 01:30 | Sereno | 29 | 0 | 15 | 1013 | 10 | E 13 | |
| Oggi h: 00:30 | Sereno | 31 | 0 | 13 | 1013 | 10 | E/SE 9.3 | |
| Oggi h: 00:00 | Sereno | 32 | 0 | 12 | 1013 | 10 | SE 13 | |
| Ieri h: 23:30 | Sereno | 32 | 0 | 12 | 1013 | 10 | SE 9.3 | |
| Ieri h: 23:00 | Sereno | 33 | 0 | 12 | 1013 | 10 | SE 11.1 | |
| Ieri h: 22:30 | Sereno | 33 | 0 | 12 | 1013 | 10 | SE 18.5 | |
| Ieri h: 22:00 | Sereno | 34 | 1 | 12 | 1014 | 10 | SE 13 | |
| Ieri h: 21:30 | Sereno | 34 | 0 | 11 | 1014 | 10 | S/SE 14.8 | |
| Ieri h: 21:00 | Sereno | 34 | 0 | 11 | 1014 | 10 | S/SE 14.8 | |
| Ieri h: 20:30 | Sereno | 34 | 0 | 11 | 1013 | 10 | S/SE 16.7 | |
| Ieri h: 20:00 | Sereno | 35 | 0 | 10 | 1013 | 10 | S/SE 13 | |
| Ieri h: 19:30 | Sereno | 35 | 0 | 10 | 1013 | 10 | SE 14.8 | |
| Ieri h: 19:00 | Sereno | 36 | 0 | 10 | 1012 | 10 | SE 14.8 | |
| Ieri h: 18:30 | Sereno | 36 | 0 | 10 | 1012 | 10 | SE 14.8 | |
| Ieri h: 17:30 | Sereno | 38 | -1 | 8 | 1012 | 10 | SE 7.4 | |
| Ieri h: 16:30 | Sereno | 39 | -1 | 8 | 1013 | 10 | E/SE 7.4 | |
| Ieri h: 15:30 | Poco Nuvoloso | 40 | -1 | 7 | 1013 | 10 | N 3.7 | |
| Ieri h: 14:30 | Poco Nuvoloso | 39 | 0 | 8 | 1014 | 10 | SE 7.4 | |
| Ieri h: 13:30 | Poco Nuvoloso | 38 | 0 | 9 | 1014 | 10 | SE 7.4 | |
| Ieri h: 12:30 | Poco Nuvoloso | 37 | -1 | 9 | 1015 | 10 | SE 11.1 | |
| Ieri h: 11:30 | Sereno | 36 | -1 | 9 | 1016 | 10 | SE 7.4 | |
| Ieri h: 10:30 | Sereno | 35 | -1 | 10 | 1017 | 10 | E/SE 7.4 | |
| Ieri h: 09:30 | Sereno | 34 | -1 | 10 | 1017 | 10 | S/SE 7.4 | |
| Ieri h: 08:30 | Sereno | 31 | 0 | 13 | 1017 | 10 | SE 7.4 | |
| Ieri h: 07:30 | Sereno | 28 | -1 | 15 | 1017 | 10 | E/SE 7.4 | |



